Main page
METAR-TAF:

METAR-TAF

Airports :

San Francisco, California, United States

San Francisco International Airport

latitude: 37-37-11N, longitude: 122-21-53W, elevation: 3 m

Current weather observation

The report was made 10 minutes ago, at 05:56 UTC
Wind 3 kt from the East/Northeast
Temperature 22°C
Humidity 53%
Pressure 1021 hPa
Visibility: 16.1 km
Few clouds at a height of 20000 ft

METAR: KSFO 240556Z 06003KT 10SM FEW200 22/12 A3014 RMK AO2 SLP207 T02170117 10278 20200 51002

Time: 23:06 (06:06 UTC)

Forecast

The report was made 38 minutes ago, at 05:28 UTC
Forecast valid from 24 at 06 UTC to 25 at 12 UTC
Wind 3 kt from variable directions
Visibility: 10 km
Clear sky
From 24 at 1900 UTC
Wind 7 kt from the West/Northwest
Visibility: 10 km
Clear sky

TAF: KSFO 240528Z 2406/2512 VRB03KT P6SM SKC FM241900 30007KT P6SM SKC

Weather observations and forecasts of more than 4000 airports (METAR and TAF reports).

The available stations are represented by yellow and red dots on the map.

Hover mouse over dot to see the name of the station.

Then click to see weather observations and forecasts.

To change the map : click on the green buttons with a black cross to zoom in, on the green button with a dash to zoom out, or on the green arrows for adjacent maps.


METAR-TAF: